createdAt,value
2022-07-25T00:01:53.667Z,88.00
2022-07-25T00:04:20.595Z,88.00
2022-07-25T00:06:49.408Z,88.30
2022-07-25T00:09:16.216Z,88.20
2022-07-25T00:11:43.109Z,88.10
2022-07-25T00:14:10.240Z,88.40
2022-07-25T00:16:37.470Z,88.50
2022-07-25T00:19:04.401Z,88.80
2022-07-25T00:21:31.412Z,88.70
2022-07-25T00:23:58.385Z,88.90
2022-07-25T00:26:25.210Z,88.80
2022-07-25T00:28:51.999Z,89.10
2022-07-25T00:31:18.868Z,89.20
2022-07-25T00:33:45.807Z,89.40
2022-07-25T00:36:13.037Z,89.50
2022-07-25T00:38:39.919Z,89.70
2022-07-25T00:41:06.867Z,89.90
2022-07-25T00:43:33.682Z,89.90
2022-07-25T00:46:01.120Z,89.90
2022-07-25T00:48:29.487Z,89.60
2022-07-25T00:50:57.385Z,89.80
2022-07-25T00:53:25.272Z,90.00
2022-07-25T00:55:52.615Z,89.60
2022-07-25T00:58:19.493Z,89.70
2022-07-25T01:00:47.208Z,89.60
2022-07-25T01:03:14.555Z,89.80
2022-07-25T01:05:41.855Z,89.90
2022-07-25T01:08:09.547Z,89.70
2022-07-25T01:10:37.122Z,90.00
2022-07-25T01:13:04.067Z,90.00
2022-07-25T01:15:31.318Z,90.00
2022-07-25T01:17:58.216Z,90.10
2022-07-25T01:20:28.451Z,89.90
2022-07-25T01:22:56.015Z,90.00
2022-07-25T01:25:23.245Z,90.20
2022-07-25T01:27:55.140Z,90.40
2022-07-25T01:30:24.246Z,90.50
2022-07-25T01:32:51.311Z,90.10
2022-07-25T01:35:18.201Z,90.30
2022-07-25T01:37:45.410Z,90.30
2022-07-25T01:40:14.630Z,90.40
2022-07-25T01:42:43.160Z,90.30
2022-07-25T01:45:11.290Z,90.40
2022-07-25T01:47:38.171Z,90.40
2022-07-25T01:50:05.666Z,90.40
2022-07-25T01:52:32.629Z,90.40
2022-07-25T01:54:59.496Z,90.50
2022-07-25T01:57:31.049Z,90.60
2022-07-25T01:59:58.785Z,90.70
2022-07-25T02:02:25.627Z,90.70
2022-07-25T02:04:52.642Z,90.90
2022-07-25T02:07:19.623Z,90.80
2022-07-25T02:09:46.518Z,90.90
2022-07-25T02:12:13.378Z,90.90
2022-07-25T02:14:40.176Z,90.90
2022-07-25T02:17:07.216Z,90.90
2022-07-25T02:19:34.434Z,90.80
2022-07-25T02:22:01.452Z,90.70
2022-07-25T02:24:28.245Z,90.90
2022-07-25T02:26:55.141Z,90.80
2022-07-25T02:29:22.322Z,90.90
2022-07-25T02:31:49.413Z,91.00
2022-07-25T02:34:16.306Z,91.00
2022-07-25T02:36:43.314Z,91.00
2022-07-25T02:39:10.257Z,91.10
2022-07-25T02:41:37.536Z,91.10
2022-07-25T02:44:05.513Z,91.20
2022-07-25T02:46:33.066Z,91.20
2022-07-25T02:49:00.240Z,91.30
2022-07-25T02:51:27.051Z,91.20
2022-07-25T02:53:57.578Z,91.20
2022-07-25T02:56:25.819Z,91.20
2022-07-25T02:58:52.603Z,91.30
2022-07-25T03:01:19.546Z,91.10
2022-07-25T03:03:46.483Z,91.40
2022-07-25T03:06:13.371Z,91.40
2022-07-25T03:08:40.239Z,91.20
2022-07-25T03:11:06.989Z,91.30
2022-07-25T03:13:33.826Z,91.30
2022-07-25T03:16:01.003Z,91.50
2022-07-25T03:18:27.808Z,91.60
2022-07-25T03:20:54.658Z,91.50
2022-07-25T03:23:21.946Z,91.50
2022-07-25T03:25:48.886Z,91.50
2022-07-25T03:28:15.883Z,91.60
2022-07-25T03:30:42.703Z,91.50
2022-07-25T03:33:10.290Z,91.60
2022-07-25T03:35:39.853Z,91.40
2022-07-25T03:38:06.984Z,91.50
2022-07-25T03:40:33.853Z,91.40
2022-07-25T03:43:00.645Z,91.50
2022-07-25T03:45:27.427Z,91.40
2022-07-25T03:47:54.332Z,91.40
2022-07-25T03:50:21.196Z,91.40
2022-07-25T03:52:48.024Z,91.40
2022-07-25T03:55:14.858Z,91.50
2022-07-25T03:57:41.685Z,91.90
2022-07-25T04:00:09.907Z,91.60
2022-07-25T04:02:40.317Z,91.60
2022-07-25T04:05:08.351Z,91.60
2022-07-25T04:07:35.658Z,91.60
2022-07-25T04:10:02.913Z,91.70
2022-07-25T04:12:29.753Z,91.60
2022-07-25T04:14:56.565Z,91.70
2022-07-25T04:17:24.333Z,91.80
2022-07-25T04:19:52.912Z,92.00
2022-07-25T04:22:19.878Z,92.00
2022-07-25T04:24:46.749Z,92.10
2022-07-25T04:27:13.721Z,92.10
2022-07-25T04:29:40.562Z,92.10
2022-07-25T04:32:07.573Z,92.20
2022-07-25T04:34:34.431Z,92.30
2022-07-25T04:37:01.182Z,92.10
2022-07-25T04:39:28.111Z,92.30
2022-07-25T04:41:54.862Z,92.20
2022-07-25T04:44:21.629Z,92.30
2022-07-25T04:46:48.428Z,92.30
2022-07-25T04:49:15.300Z,92.30
2022-07-25T04:51:42.176Z,92.30
2022-07-25T04:54:10.099Z,92.40
2022-07-25T04:56:37.104Z,92.50
2022-07-25T04:59:06.890Z,92.40
2022-07-25T05:01:34.935Z,92.40
2022-07-25T05:04:02.321Z,92.40
2022-07-25T05:06:29.257Z,92.60
2022-07-25T05:08:56.202Z,92.80
2022-07-25T05:11:23.148Z,92.60
2022-07-25T05:13:50.058Z,92.70
2022-07-25T05:16:16.937Z,92.60
2022-07-25T05:18:43.785Z,92.30
2022-07-25T05:21:12.416Z,92.40
2022-07-25T05:23:39.657Z,92.30
2022-07-25T05:26:06.577Z,92.40
2022-07-25T05:28:33.493Z,92.20
2022-07-25T05:31:00.384Z,92.00
2022-07-25T05:33:27.214Z,92.00
2022-07-25T05:35:54.109Z,92.10
2022-07-25T05:38:21.355Z,92.20
2022-07-25T05:40:49.084Z,92.10
2022-07-25T05:43:15.947Z,92.00
2022-07-25T05:45:42.767Z,91.90
2022-07-25T05:48:09.790Z,91.80
2022-07-25T05:50:40.785Z,92.10
2022-07-25T05:53:08.015Z,91.80
2022-07-25T05:55:35.003Z,91.70
2022-07-25T05:58:06.880Z,91.70
2022-07-25T06:00:33.735Z,92.00
2022-07-25T06:03:00.908Z,91.70
2022-07-25T06:05:28.345Z,91.90
2022-07-25T06:07:55.098Z,91.40
2022-07-25T06:10:22.354Z,91.30
2022-07-25T06:12:49.145Z,91.70
2022-07-25T06:15:22.234Z,92.00
2022-07-25T06:17:49.482Z,92.10
2022-07-25T06:20:16.318Z,92.00
2022-07-25T06:22:43.165Z,92.20
2022-07-25T06:25:10.474Z,92.30
2022-07-25T06:27:38.495Z,92.30
2022-07-25T06:32:46.932Z,91.50
2022-07-25T06:35:13.787Z,91.80
2022-07-25T06:37:40.722Z,91.30
2022-07-25T06:40:08.461Z,90.00
2022-07-25T06:42:43.258Z,90.20
2022-07-25T06:45:11.337Z,88.40
2022-07-25T06:47:40.122Z,88.30
2022-07-25T06:50:08.877Z,89.20
2022-07-25T06:52:38.940Z,88.40
2022-07-25T06:55:07.086Z,88.10
2022-07-25T06:57:34.168Z,88.20
2022-07-25T07:00:01.049Z,88.10
2022-07-25T07:02:27.831Z,88.30
2022-07-25T07:04:54.673Z,89.30
2022-07-25T07:07:21.546Z,88.90
2022-07-25T07:09:48.376Z,89.00
2022-07-25T07:12:15.477Z,88.80
2022-07-25T07:14:44.470Z,87.30
2022-07-25T07:17:11.658Z,87.50
2022-07-25T07:19:44.609Z,88.00
2022-07-25T07:22:11.587Z,87.80
2022-07-25T07:24:44.058Z,87.80
2022-07-25T07:27:11.287Z,88.50
2022-07-25T07:29:38.113Z,89.00
2022-07-25T07:32:06.660Z,89.60
2022-07-25T07:34:33.815Z,88.90
2022-07-25T07:37:00.661Z,89.60
2022-07-25T07:39:27.551Z,89.50
2022-07-25T07:41:54.450Z,88.70
2022-07-25T07:44:21.367Z,89.30
2022-07-25T07:46:49.034Z,89.20
2022-07-25T07:49:16.121Z,89.10
2022-07-25T07:51:43.008Z,89.10
2022-07-25T07:54:28.388Z,88.60
2022-07-25T07:56:55.232Z,89.40
2022-07-25T07:59:22.147Z,88.80
2022-07-25T08:01:49.147Z,88.60
2022-07-25T08:04:16.384Z,88.60
2022-07-25T08:06:43.305Z,87.80
2022-07-25T08:09:10.525Z,87.10
2022-07-25T08:11:39.318Z,87.00
2022-07-25T08:14:07.625Z,87.30
2022-07-25T08:16:34.787Z,87.80
2022-07-25T08:19:01.786Z,86.60
2022-07-25T08:21:28.910Z,87.00
2022-07-25T08:23:55.783Z,87.60
2022-07-25T08:26:22.663Z,87.40
2022-07-25T08:28:59.947Z,87.10
2022-07-25T08:31:36.328Z,87.30
2022-07-25T08:34:04.205Z,88.00
2022-07-25T08:36:34.848Z,88.20
2022-07-25T08:39:02.047Z,87.90
2022-07-25T08:41:29.329Z,86.70
2022-07-25T08:43:56.318Z,86.40
2022-07-25T08:46:24.051Z,87.40
2022-07-25T08:48:52.337Z,86.80
2022-07-25T08:51:19.519Z,86.50
2022-07-25T08:53:48.515Z,88.20
2022-07-25T08:56:20.744Z,87.70
2022-07-25T09:01:16.826Z,86.50
2022-07-25T09:03:44.255Z,87.10
2022-07-25T09:06:21.096Z,87.80
2022-07-25T09:08:55.906Z,86.40
2022-07-25T09:11:50.058Z,86.10
2022-07-25T09:14:17.841Z,87.10
2022-07-25T09:16:45.570Z,85.80
2022-07-25T09:19:18.198Z,86.00
2022-07-25T09:21:57.693Z,87.20
2022-07-25T09:24:26.430Z,88.40
2022-07-25T09:26:56.037Z,87.70
2022-07-25T09:29:29.163Z,89.10
2022-07-25T09:31:57.399Z,88.90
2022-07-25T09:34:36.257Z,88.70
2022-07-25T09:37:05.336Z,88.60
2022-07-25T09:39:45.810Z,88.70
2022-07-25T09:44:44.846Z,87.10
2022-07-25T09:47:17.560Z,88.40
2022-07-25T09:49:46.698Z,88.00
2022-07-25T09:52:13.722Z,87.00
2022-07-25T09:54:40.999Z,85.10
2022-07-25T09:57:07.923Z,85.00
2022-07-25T09:59:35.965Z,85.00
2022-07-25T10:02:10.216Z,84.80
2022-07-25T10:05:01.383Z,85.80
2022-07-25T10:07:31.552Z,87.20
2022-07-25T10:10:00.280Z,87.20
2022-07-25T10:12:27.096Z,85.40
2022-07-25T10:15:11.877Z,86.20
2022-07-25T10:17:41.017Z,85.60
2022-07-25T10:20:11.257Z,85.60
2022-07-25T10:22:58.837Z,84.80
2022-07-25T10:25:26.977Z,86.50
2022-07-25T10:28:03.089Z,85.00
2022-07-25T10:30:38.737Z,86.50
2022-07-25T10:33:12.712Z,84.90
2022-07-25T10:35:40.230Z,86.50
2022-07-25T10:38:07.883Z,87.10
2022-07-25T10:40:39.988Z,87.70
2022-07-25T10:43:18.130Z,90.90
2022-07-25T10:45:53.595Z,90.60
2022-07-25T10:48:23.555Z,90.10
2022-07-25T10:51:10.807Z,90.20
2022-07-25T10:53:44.490Z,90.20
2022-07-25T10:56:18.154Z,90.10
2022-07-25T10:58:58.646Z,89.30
2022-07-25T11:01:34.045Z,90.10
2022-07-25T11:04:06.197Z,90.80
2022-07-25T11:06:41.578Z,91.10
2022-07-25T11:09:19.171Z,90.80
2022-07-25T11:11:48.811Z,90.60
2022-07-25T11:14:33.484Z,90.60
2022-07-25T11:17:20.255Z,92.00
2022-07-25T11:20:04.183Z,93.70
2022-07-25T11:22:31.556Z,94.00
2022-07-25T11:24:59.111Z,94.70
2022-07-25T11:27:28.839Z,94.00
2022-07-25T11:30:17.330Z,94.20
2022-07-25T11:32:46.968Z,93.80
2022-07-25T11:35:15.704Z,92.80
2022-07-25T11:37:47.912Z,92.90
2022-07-25T11:40:18.721Z,93.20
2022-07-25T11:42:53.494Z,92.80
2022-07-25T11:45:31.350Z,92.40
2022-07-25T11:48:10.147Z,91.70
2022-07-25T11:50:39.501Z,91.50
2022-07-25T11:53:08.706Z,91.10
2022-07-25T11:55:41.754Z,91.20
2022-07-25T11:58:10.081Z,91.10
2022-07-25T12:00:47.207Z,91.10
2022-07-25T12:03:21.200Z,90.80
2022-07-25T12:05:49.363Z,90.40
2022-07-25T12:08:21.519Z,91.10
2022-07-25T12:10:51.594Z,91.00
2022-07-25T12:13:26.412Z,90.60
2022-07-25T12:15:54.176Z,90.90
2022-07-25T12:18:21.113Z,90.20
2022-07-25T12:20:48.300Z,90.30
2022-07-25T12:23:15.165Z,90.50
2022-07-25T12:25:45.306Z,89.30
2022-07-25T12:28:12.963Z,90.40
2022-07-25T12:30:41.117Z,90.70
2022-07-25T12:33:08.970Z,90.80
2022-07-25T12:35:37.602Z,90.20
2022-07-25T12:38:04.976Z,90.40
2022-07-25T12:40:32.223Z,90.40
2022-07-25T12:42:59.581Z,90.20
2022-07-25T12:45:26.822Z,90.30
2022-07-25T12:47:53.637Z,90.00
2022-07-25T12:50:20.659Z,90.10
2022-07-25T12:52:48.095Z,89.70
2022-07-25T12:55:17.695Z,88.70
2022-07-25T12:57:45.114Z,88.80
2022-07-25T13:00:14.924Z,88.80
2022-07-25T13:02:42.014Z,88.40
2022-07-25T13:05:09.422Z,86.50
2022-07-25T13:07:36.821Z,87.20
2022-07-25T13:10:05.285Z,86.10
2022-07-25T13:12:32.417Z,86.40
2022-07-25T13:14:59.300Z,86.00
2022-07-25T13:17:27.938Z,85.10
2022-07-25T13:19:55.656Z,86.10
2022-07-25T13:22:22.613Z,87.00
2022-07-25T13:24:49.418Z,86.40
2022-07-25T13:27:19.022Z,86.50
2022-07-25T13:29:45.983Z,84.20
2022-07-25T13:32:13.473Z,84.40
2022-07-25T13:34:40.263Z,84.50
2022-07-25T13:37:07.137Z,84.10
2022-07-25T13:39:35.820Z,84.70
2022-07-25T13:42:03.463Z,84.80
2022-07-25T13:44:30.220Z,84.10
2022-07-25T13:46:58.736Z,85.30
2022-07-25T13:49:26.274Z,84.70
2022-07-25T13:51:53.125Z,84.80
2022-07-25T13:54:19.979Z,84.50
2022-07-25T13:56:47.622Z,84.10
2022-07-25T13:59:20.508Z,85.10
2022-07-25T14:02:25.886Z,84.40
2022-07-25T14:04:52.821Z,83.80
2022-07-25T14:07:19.815Z,84.50
2022-07-25T14:09:46.594Z,84.30
2022-07-25T14:12:13.354Z,84.60
2022-07-25T14:14:40.838Z,84.30
2022-07-25T14:17:07.706Z,84.10
2022-07-25T14:19:34.689Z,84.50
2022-07-25T14:22:01.553Z,84.50
2022-07-25T14:24:28.352Z,83.70
2022-07-25T14:26:55.243Z,84.10
2022-07-25T14:29:24.864Z,84.50
2022-07-25T14:31:54.019Z,84.50
2022-07-25T14:34:20.919Z,84.50
2022-07-25T14:36:47.867Z,84.30
2022-07-25T14:39:15.611Z,84.80
2022-07-25T14:41:42.608Z,85.40
2022-07-25T14:44:09.520Z,85.30
2022-07-25T14:46:36.605Z,85.00
2022-07-25T14:49:03.834Z,84.80
2022-07-25T14:51:30.830Z,85.20
2022-07-25T14:53:57.638Z,85.30
2022-07-25T14:56:24.870Z,85.60
2022-07-25T14:58:51.803Z,84.30
2022-07-25T15:01:19.057Z,83.90
2022-07-25T15:03:46.126Z,84.40
2022-07-25T15:06:13.092Z,83.60
2022-07-25T15:08:39.987Z,83.10
2022-07-25T15:11:07.097Z,82.70
2022-07-25T15:13:34.347Z,82.70
2022-07-25T15:16:02.416Z,82.20
2022-07-25T15:18:29.790Z,81.50
2022-07-25T15:20:56.746Z,82.70
2022-07-25T15:23:25.308Z,81.10
2022-07-25T15:26:03.444Z,81.40
2022-07-25T15:28:35.159Z,81.40
2022-07-25T15:31:02.326Z,81.80
2022-07-25T15:33:29.359Z,83.50
2022-07-25T15:35:56.176Z,86.80
2022-07-25T15:38:23.716Z,86.20
2022-07-25T15:40:50.800Z,87.90
2022-07-25T15:43:17.733Z,88.70
2022-07-25T15:45:46.338Z,88.00
2022-07-25T15:48:14.854Z,89.10
2022-07-25T15:50:44.343Z,89.00
2022-07-25T15:53:12.126Z,89.30
2022-07-25T15:55:42.257Z,87.70
2022-07-25T15:58:10.289Z,87.60
2022-07-25T16:00:38.548Z,89.00
2022-07-25T16:03:06.557Z,87.60
2022-07-25T16:05:34.025Z,88.10
2022-07-25T16:08:03.450Z,87.80
2022-07-25T16:10:32.080Z,88.10
2022-07-25T16:12:59.428Z,88.10
2022-07-25T16:15:27.229Z,88.50
2022-07-25T16:18:00.209Z,87.80
2022-07-25T16:20:29.696Z,87.70
2022-07-25T16:22:57.847Z,88.10
2022-07-25T16:25:26.055Z,88.80
2022-07-25T16:27:52.933Z,88.60
2022-07-25T16:30:20.435Z,89.10
2022-07-25T16:32:48.519Z,89.00
2022-07-25T16:35:16.102Z,88.80
2022-07-25T16:37:43.497Z,88.00
2022-07-25T16:40:10.840Z,88.30
2022-07-25T16:42:37.816Z,88.30
2022-07-25T16:45:05.667Z,88.20
2022-07-25T16:47:32.528Z,88.20
2022-07-25T16:49:59.394Z,88.20
2022-07-25T16:52:26.349Z,89.00
2022-07-25T16:54:53.209Z,87.60
2022-07-25T16:57:24.681Z,87.30
2022-07-25T16:59:53.453Z,87.00
2022-07-25T17:02:24.816Z,87.10
2022-07-25T17:04:54.717Z,86.60
2022-07-25T17:07:21.659Z,86.00
2022-07-25T17:09:48.488Z,85.50
2022-07-25T17:12:16.576Z,86.10
2022-07-25T17:14:44.205Z,85.70
2022-07-25T17:17:11.119Z,85.60
2022-07-25T17:19:40.046Z,85.50
2022-07-25T17:22:07.943Z,85.30
2022-07-25T17:24:35.222Z,85.70
2022-07-25T17:27:02.866Z,85.00
2022-07-25T17:29:29.881Z,85.40
2022-07-25T17:31:56.922Z,84.60
2022-07-25T17:34:25.325Z,85.40
2022-07-25T17:36:52.761Z,82.50
2022-07-25T17:39:19.797Z,83.20
2022-07-25T17:41:46.655Z,83.30
2022-07-25T17:44:13.833Z,82.60
2022-07-25T17:46:41.036Z,82.70
2022-07-25T17:49:08.046Z,82.50
2022-07-25T17:51:38.304Z,82.10
2022-07-25T17:54:05.581Z,81.90
2022-07-25T17:56:33.946Z,82.00
2022-07-25T17:59:01.482Z,82.20
2022-07-25T18:01:28.401Z,83.10
2022-07-25T18:03:55.298Z,82.80
2022-07-25T18:06:26.326Z,82.80
2022-07-25T18:08:56.261Z,82.80
2022-07-25T18:11:23.131Z,83.00
2022-07-25T18:13:50.165Z,83.00
2022-07-25T18:16:17.494Z,83.60
2022-07-25T18:18:44.448Z,83.20
2022-07-25T18:21:11.348Z,83.90
2022-07-25T18:23:38.204Z,83.50
2022-07-25T18:26:05.087Z,83.70
2022-07-25T18:28:32.048Z,83.60
2022-07-25T18:30:59.195Z,83.90
2022-07-25T18:33:26.591Z,84.50
2022-07-25T18:35:53.684Z,84.00
2022-07-25T18:38:20.540Z,83.70
2022-07-25T18:40:47.511Z,83.80
2022-07-25T18:43:14.599Z,83.30
2022-07-25T18:45:42.241Z,83.40
2022-07-25T18:48:09.718Z,83.20
2022-07-25T18:50:36.697Z,83.50
2022-07-25T18:53:03.786Z,83.90
2022-07-25T18:55:30.674Z,84.00
2022-07-25T18:57:57.509Z,84.30
2022-07-25T19:00:24.363Z,84.20
2022-07-25T19:02:51.209Z,84.60
2022-07-25T19:05:18.412Z,84.80
2022-07-25T19:07:45.536Z,84.70
2022-07-25T19:10:12.638Z,84.80
2022-07-25T19:12:39.600Z,85.10
2022-07-25T19:15:07.416Z,85.00
2022-07-25T19:17:34.914Z,85.10
2022-07-25T19:20:02.239Z,85.00
2022-07-25T19:22:29.086Z,85.40
2022-07-25T19:24:56.059Z,85.30
2022-07-25T19:27:25.037Z,85.00
2022-07-25T19:29:52.066Z,85.00
2022-07-25T19:32:19.015Z,85.10
2022-07-25T19:34:45.898Z,84.70
2022-07-25T19:37:12.773Z,84.00
2022-07-25T19:39:39.644Z,83.90
2022-07-25T19:42:08.775Z,83.60
2022-07-25T19:44:36.750Z,84.30
2022-07-25T19:47:07.192Z,83.90
2022-07-25T19:49:36.754Z,83.80
2022-07-25T19:52:03.719Z,84.30
2022-07-25T19:54:31.037Z,84.10
2022-07-25T19:57:00.083Z,84.40
2022-07-25T19:59:27.509Z,84.20
2022-07-25T20:01:55.539Z,84.30
2022-07-25T20:04:23.322Z,83.80
2022-07-25T20:06:53.884Z,84.10
2022-07-25T20:09:20.782Z,84.00
2022-07-25T20:11:47.719Z,84.20
2022-07-25T20:14:14.581Z,83.90
2022-07-25T20:16:41.659Z,83.70
2022-07-25T20:19:11.418Z,84.10
2022-07-25T20:21:39.957Z,83.70
2022-07-25T20:24:07.511Z,84.10
2022-07-25T20:26:34.580Z,83.70
2022-07-25T20:29:01.816Z,84.10
2022-07-25T20:31:28.835Z,84.00
2022-07-25T20:33:56.060Z,84.10
2022-07-25T20:36:23.040Z,83.00
2022-07-25T20:38:50.001Z,83.40
2022-07-25T20:41:16.933Z,83.60
2022-07-25T20:43:45.400Z,82.80
2022-07-25T20:46:12.418Z,82.50
2022-07-25T20:48:39.382Z,82.00
2022-07-25T20:51:06.488Z,81.30
2022-07-25T20:53:33.330Z,81.10
2022-07-25T20:56:00.089Z,80.80
2022-07-25T20:58:26.880Z,81.10
2022-07-25T21:00:53.745Z,80.80
2022-07-25T21:03:20.614Z,80.80
2022-07-25T21:05:47.727Z,81.10
2022-07-25T21:08:15.397Z,80.70
2022-07-25T21:10:42.288Z,81.10
2022-07-25T21:13:09.161Z,81.50
2022-07-25T21:15:36.141Z,81.80
2022-07-25T21:18:03.017Z,82.10
2022-07-25T21:20:29.994Z,82.00
2022-07-25T21:22:56.930Z,81.60
2022-07-25T21:25:23.793Z,81.70
2022-07-25T21:27:50.681Z,81.90
2022-07-25T21:30:17.681Z,81.90
2022-07-25T21:32:45.083Z,82.00
2022-07-25T21:35:11.997Z,83.00
2022-07-25T21:37:38.908Z,83.10
2022-07-25T21:40:06.460Z,83.90
2022-07-25T21:42:33.387Z,84.30
2022-07-25T21:45:00.306Z,84.50
2022-07-25T21:47:27.193Z,84.60
2022-07-25T21:50:13.229Z,84.70
2022-07-25T21:52:46.061Z,85.40
2022-07-25T21:55:12.867Z,85.30
2022-07-25T21:57:39.730Z,84.40
2022-07-25T22:00:10.032Z,84.10
2022-07-25T22:02:36.974Z,84.60
2022-07-25T22:05:04.442Z,83.80
2022-07-25T22:07:31.312Z,84.30
2022-07-25T22:09:58.424Z,83.80
2022-07-25T22:12:25.275Z,84.10
2022-07-25T22:14:52.040Z,84.30
2022-07-25T22:17:18.884Z,84.80
2022-07-25T22:19:46.073Z,84.20
2022-07-25T22:22:12.913Z,84.20
2022-07-25T22:24:44.473Z,84.20
2022-07-25T22:27:13.293Z,84.20
2022-07-25T22:29:40.188Z,84.90
2022-07-25T22:32:07.147Z,84.70
2022-07-25T22:34:34.289Z,84.90
2022-07-25T22:37:01.188Z,84.40
2022-07-25T22:39:28.007Z,84.40
2022-07-25T22:41:54.804Z,84.60
2022-07-25T22:44:21.633Z,84.60
2022-07-25T22:46:48.645Z,85.60
2022-07-25T22:49:15.633Z,84.60
2022-07-25T22:51:42.573Z,85.00
2022-07-25T22:54:09.425Z,85.00
2022-07-25T22:56:37.540Z,85.00
2022-07-25T22:59:05.076Z,85.10
2022-07-25T23:01:33.345Z,84.90
2022-07-25T23:04:00.391Z,85.80
2022-07-25T23:06:27.353Z,85.20
2022-07-25T23:08:54.801Z,86.00
2022-07-25T23:11:21.733Z,85.90
2022-07-25T23:13:48.662Z,86.50
2022-07-25T23:16:16.406Z,85.90
2022-07-25T23:18:44.470Z,86.00
2022-07-25T23:21:12.385Z,86.20
2022-07-25T23:23:40.457Z,86.50
2022-07-25T23:26:07.992Z,86.40
2022-07-25T23:28:35.753Z,86.10
2022-07-25T23:31:03.093Z,86.10
2022-07-25T23:33:30.862Z,87.30
2022-07-25T23:35:58.911Z,86.70
2022-07-25T23:38:26.458Z,87.20
2022-07-25T23:40:55.335Z,87.20
2022-07-25T23:43:33.597Z,87.30
2022-07-25T23:46:10.955Z,86.80
2022-07-25T23:48:39.475Z,87.10
2022-07-25T23:51:07.429Z,87.50
2022-07-25T23:53:35.898Z,87.70
2022-07-25T23:56:03.764Z,87.60
2022-07-25T23:58:30.959Z,87.80
